KBKW/BKW METAR and TAF weather

Enter ICAO airport designator
Station Type Date Time Source
KBKW METAR 2022/11/30 15:51 UTC NOAA

KBKW 301551Z AUTO 24010G18KT 10SM BKN016 BKN021 OVC029 13/11 A2985 RMK AO2 RAE00 SLP100 P0000 T01330106


Station Type Date Time Source
KBKW Decoded METAR 2022/11/30 15:51 UTC NOAA

RALEIGH COUNTY MEM AIRPORT , WV, United States (KBKW) 37-48N 081-07W 764M
Nov 30, 2022 - 10:51 AM EST / 2022.11.30 1551 UTC
Wind: from the WSW (240 degrees) at 12 MPH (10 KT) gusting to 21 MPH (18 KT):0
Visibility: 10 mile(s):0
Sky conditions: overcast
Precipitation last hour: A trace
Temperature: 55.9 F (13.3 C)
Dew Point: 51.1 F (10.6 C)
Relative Humidity: 83%
Pressure (altimeter): 29.85 in. Hg (1010 hPa)
ob: KBKW 301551Z AUTO 24010G18KT 10SM BKN016 BKN021 OVC029 13/11 A2985 RMK AO2 RAE00 SLP100 P0000 T01330106
cycle: 16

Station Type Date Time Source
KBKW TAF 2022/11/30 14:30 UTC NOAA

TAF
AMD KBKW 301429Z 3014/0112 17010G17KT 6SM -SHRA BR SCT025 OVC060 WS020/21045KT
TEMPO 3014/3015 19011G29KT 4SM -SHRA BR BKN025
FM301500 25012G32KT P6SM VCSH OVC009 WS020/21045KT
FM301800 28013G26KT P6SM BKN016
FM010000 28010G24KT P6SM FEW170
FM011000 30011KT P6SM SCT250

Example: see airport list